Put In Bay, OH (43456)

3:34 AM EDT on October 24, 2014 (GMT -0400)
ANCHORS AWAY MARINA | Change Station
CLOSE
Current Station
Personal Weather Station
Location: Marblehead, OH
Elevation: 577 ft
Nearby Weather Stations

Elev 577 ft 41.56 °N, 82.82 °W | Updated 3 seconds ago

Partly Cloudy
Partly Cloudy
45.1 °F
Feels Like 45 °F
N
2.0
Wind Variable Wind from SW
Gusts 4.0 mph

Today
High -- | Low -- °F
--% Chance of Precip.
Yesterday
High -- | Low -- °F
Precip. -- in
7:53 AM 6:36 PM
New Moon, 0% visible
Pressure 30.09 in
Visibility 10.0 miles
Clouds Clear
Windchill 45 °F
Dew Point 43 °F
Humidity 92%
Rainfall 0.00 in
Snow Depth Not available.
UV 0 out of 12
Pollen .10 out of 12
Air Quality Not available.
Flu Activity Sporadic
METAR KPCW 240713Z AUTO 00000KT 10SM CLR 05/04 A3009 RMK AO2 $

More Conditions Fewer Conditions

Pressure 30.09 in
Visibility 10.0 miles
Clouds Clear
Windchill 45 °F
Dew Point 43 °F
Humidity 92%
Rainfall 0.00 in
Snow Depth Not available.
UV 0 out of 12
Pollen .10 out of 12
Air Quality Not available.
Flu Activity Sporadic
METAR KPCW 240713Z AUTO 00000KT 10SM CLR 05/04 A3009 RMK AO2 $

More Conditions Fewer Conditions

10-Day Weather Forecast

Almanac

Astronomy

Oct. 24, 2014 Rise Set
Actual Time 7:53 AM EDT 6:36 PM EDT
Civil Twilight 7:25 AM EDT 7:04 PM EDT
Nautical Twilight 6:52 AM EDT 7:37 PM EDT
Astronomical Twilight 6:20 AM EDT 8:09 PM EDT
Moon 8:32 AM EDT 7:15 PM EDT
Length of Visible Light 11h 39m
Length of Day
10h 42m
Tomorrow will be 2m 34s shorter.
New Moon, 0% of the Moon is Illuminated
Today
New Moon
Oct 30
First Quarter
Nov 6
Full
Nov 14
Last Quarter
Nov 22
New

Today's Extremes

State Highs State Lows

Community

WunderPhotos

Upload Photos

1,764,512 photos uploaded!

WunderBlogs® & News

Nearby

Snow Depth

Station Depth Elevation
No new snow has been reported.

Earthquake Activity

City Distance Mag. Time & Date
No recent earthquake activity has been reported nearby.
Minimum magnitude displayed is 2.5.

Coastal Water Temperatures

Place Temperature
Marblehead, OH 53.1 °F

Nearby Weather Stations